createdAt,value
2022-12-03T00:00:14.047Z,73.95
2022-12-03T00:02:42.085Z,74.48
2022-12-03T00:05:10.594Z,74.11
2022-12-03T00:07:38.514Z,74.39
2022-12-03T00:10:07.990Z,74.39
2022-12-03T00:12:35.643Z,73.79
2022-12-03T00:15:05.737Z,73.84
2022-12-03T00:17:33.555Z,73.92
2022-12-03T00:20:01.313Z,74.45
2022-12-03T00:22:29.208Z,74.59
2022-12-03T00:24:56.995Z,74.19
2022-12-03T00:27:24.750Z,74.83
2022-12-03T00:29:52.525Z,74.48
2022-12-03T00:32:21.647Z,74.85
2022-12-03T00:34:49.375Z,74.18
2022-12-03T00:37:17.123Z,74.28
2022-12-03T00:39:44.859Z,74.07
2022-12-03T00:42:12.584Z,74.24
2022-12-03T00:44:40.363Z,74.15
2022-12-03T00:47:08.155Z,74.21
2022-12-03T00:49:37.336Z,74.31
2022-12-03T00:52:05.201Z,74.38
2022-12-03T00:54:42.305Z,74.67
2022-12-03T00:57:10.017Z,74.19
2022-12-03T00:59:37.834Z,74.62
2022-12-03T01:02:05.648Z,74.26
2022-12-03T01:04:33.880Z,74.29
2022-12-03T01:07:03.045Z,74.15
2022-12-03T01:09:30.779Z,74.22
2022-12-03T01:11:58.678Z,74.60
2022-12-03T01:14:26.419Z,74.35
2022-12-03T01:16:54.268Z,73.70
2022-12-03T01:19:22.132Z,73.88
2022-12-03T01:21:52.181Z,74.33
2022-12-03T01:24:21.487Z,74.38
2022-12-03T01:26:49.323Z,74.44
2022-12-03T01:29:17.089Z,74.07
2022-12-03T01:32:02.542Z,74.22
2022-12-03T01:34:30.266Z,74.21
2022-12-03T01:36:58.013Z,74.01
2022-12-03T01:39:27.161Z,73.12
2022-12-03T01:41:56.160Z,73.52
2022-12-03T01:44:26.718Z,73.47
2022-12-03T01:46:57.332Z,74.08
2022-12-03T01:49:28.539Z,73.67
2022-12-03T01:51:57.311Z,73.47
2022-12-03T01:54:29.281Z,73.71
2022-12-03T01:56:57.342Z,74.04
2022-12-03T01:59:32.791Z,73.40
2022-12-03T02:02:01.615Z,73.76
2022-12-03T02:04:30.773Z,73.82
2022-12-03T02:07:17.754Z,73.36
2022-12-03T02:09:47.098Z,73.35
2022-12-03T02:12:16.271Z,72.89
2022-12-03T02:14:44.387Z,73.57
2022-12-03T02:17:12.605Z,73.61
2022-12-03T02:19:40.587Z,73.49
2022-12-03T02:22:16.444Z,73.30
2022-12-03T02:24:53.484Z,73.07
2022-12-03T02:27:23.151Z,73.28
2022-12-03T02:29:50.919Z,72.90
2022-12-03T02:32:18.776Z,73.08
2022-12-03T02:34:47.212Z,73.11
2022-12-03T02:37:19.235Z,73.14
2022-12-03T02:39:51.211Z,72.72
2022-12-03T02:42:37.771Z,73.38
2022-12-03T02:45:11.344Z,73.67
2022-12-03T02:47:43.129Z,73.80
2022-12-03T02:50:14.739Z,73.53
2022-12-03T02:52:45.167Z,73.59
2022-12-03T02:55:15.837Z,73.97
2022-12-03T02:57:46.284Z,73.77
2022-12-03T03:00:17.730Z,73.81
2022-12-03T03:02:47.775Z,74.05
2022-12-03T03:05:17.122Z,73.10
2022-12-03T03:07:44.747Z,73.55
2022-12-03T03:10:15.100Z,73.67
2022-12-03T03:12:42.984Z,74.14
2022-12-03T03:15:12.577Z,74.21
2022-12-03T03:17:42.412Z,74.35
2022-12-03T03:20:11.867Z,74.46
2022-12-03T03:22:42.037Z,74.20
2022-12-03T03:25:12.028Z,74.70
2022-12-03T03:27:41.067Z,74.79
2022-12-03T03:30:11.071Z,74.61
2022-12-03T03:32:39.790Z,74.57
2022-12-03T03:35:11.774Z,74.93
2022-12-03T03:37:40.237Z,74.68
2022-12-03T03:40:09.600Z,74.81
2022-12-03T03:42:37.712Z,75.03
2022-12-03T03:45:07.436Z,75.08
2022-12-03T03:47:35.289Z,74.90
2022-12-03T03:50:03.530Z,74.35
2022-12-03T03:52:32.802Z,74.73
2022-12-03T03:55:00.784Z,74.50
2022-12-03T03:57:28.608Z,74.59
2022-12-03T03:59:56.547Z,75.28
2022-12-03T04:02:26.378Z,74.70
2022-12-03T04:04:54.980Z,74.67
2022-12-03T04:07:23.000Z,74.75
2022-12-03T04:09:52.156Z,74.13
2022-12-03T04:12:37.472Z,73.95
2022-12-03T04:15:06.395Z,74.29
2022-12-03T04:17:34.150Z,74.09
2022-12-03T04:20:01.865Z,74.43
2022-12-03T04:22:40.616Z,73.96
2022-12-03T04:25:28.898Z,74.06
2022-12-03T04:28:14.274Z,74.43
2022-12-03T04:30:42.007Z,74.26
2022-12-03T04:33:27.152Z,74.45
2022-12-03T04:35:57.345Z,74.66
2022-12-03T04:38:25.154Z,74.70
2022-12-03T04:41:04.227Z,74.62
2022-12-03T04:43:33.826Z,74.54
2022-12-03T04:46:01.945Z,74.55
2022-12-03T04:48:29.880Z,74.78
2022-12-03T04:50:57.607Z,74.96
2022-12-03T04:53:25.441Z,75.11
2022-12-03T04:55:54.568Z,74.56
2022-12-03T04:58:22.497Z,74.01
2022-12-03T05:00:50.281Z,74.08
2022-12-03T05:03:18.099Z,74.50
2022-12-03T05:05:45.854Z,74.37
2022-12-03T05:08:13.668Z,74.55
2022-12-03T05:10:41.435Z,74.29
2022-12-03T05:13:10.594Z,74.47
2022-12-03T05:15:38.332Z,74.08
2022-12-03T05:18:06.271Z,74.74
2022-12-03T05:20:46.947Z,74.86
2022-12-03T05:23:19.175Z,74.72
2022-12-03T05:25:47.113Z,75.19
2022-12-03T05:28:16.310Z,74.49
2022-12-03T05:30:44.092Z,74.68
2022-12-03T05:33:11.942Z,74.79
2022-12-03T05:35:39.724Z,74.80
2022-12-03T05:38:07.469Z,74.85
2022-12-03T05:40:35.454Z,75.32
2022-12-03T05:43:02.281Z,76.16
2022-12-03T05:45:33.736Z,76.43
2022-12-03T05:48:02.349Z,76.03
2022-12-03T05:50:31.542Z,75.97
2022-12-03T05:52:59.769Z,76.08
2022-12-03T05:55:28.648Z,76.55
2022-12-03T05:57:56.529Z,76.51
2022-12-03T06:00:26.848Z,77.15
2022-12-03T06:02:56.861Z,76.28
2022-12-03T06:05:25.677Z,76.22
2022-12-03T06:07:54.082Z,77.24
2022-12-03T06:10:23.729Z,77.94
2022-12-03T06:12:51.469Z,78.63
2022-12-03T06:15:19.949Z,79.05
2022-12-03T06:17:48.175Z,79.09
2022-12-03T06:20:19.467Z,79.83
2022-12-03T06:22:47.715Z,80.40
2022-12-03T06:25:16.221Z,80.28
2022-12-03T06:27:43.945Z,80.58
2022-12-03T06:30:13.451Z,80.49
2022-12-03T06:32:41.313Z,80.68
2022-12-03T06:35:10.043Z,80.66
2022-12-03T06:37:39.233Z,81.18
2022-12-03T06:40:08.435Z,81.03
2022-12-03T06:42:36.210Z,80.99
2022-12-03T06:45:04.166Z,81.27
2022-12-03T06:47:31.960Z,81.72
2022-12-03T06:49:59.696Z,81.50
2022-12-03T06:52:27.478Z,80.93
2022-12-03T06:54:56.801Z,80.93
2022-12-03T06:57:24.446Z,81.14
2022-12-03T06:59:52.596Z,80.45
2022-12-03T07:02:20.650Z,80.41
2022-12-03T07:04:48.503Z,80.25
2022-12-03T07:07:16.298Z,80.26
2022-12-03T07:09:44.120Z,80.39
2022-12-03T07:12:13.240Z,80.74
2022-12-03T07:14:41.073Z,80.57
2022-12-03T07:17:08.869Z,80.96
2022-12-03T07:19:36.735Z,80.98
2022-12-03T07:22:04.535Z,80.93
2022-12-03T07:24:32.696Z,80.43
2022-12-03T07:27:00.439Z,80.60
2022-12-03T07:29:29.548Z,80.95
2022-12-03T07:31:57.297Z,81.59
2022-12-03T07:34:25.063Z,81.16
2022-12-03T07:36:52.854Z,80.45
2022-12-03T07:39:20.654Z,80.71
2022-12-03T07:41:48.365Z,81.13
2022-12-03T07:44:16.139Z,82.13
2022-12-03T07:46:45.315Z,81.80
2022-12-03T07:49:13.238Z,80.88
2022-12-03T07:51:41.283Z,81.13
2022-12-03T07:54:09.358Z,81.02
2022-12-03T07:56:37.128Z,82.03
2022-12-03T07:59:04.921Z,81.59
2022-12-03T08:01:32.741Z,80.79
2022-12-03T08:04:01.923Z,81.39
2022-12-03T08:06:29.704Z,80.74
2022-12-03T08:08:57.468Z,81.57
2022-12-03T08:11:25.241Z,82.33
2022-12-03T08:13:53.066Z,81.68
2022-12-03T08:16:23.338Z,81.42
2022-12-03T08:18:52.076Z,82.12
2022-12-03T08:21:22.745Z,82.05
2022-12-03T08:23:50.686Z,82.46
2022-12-03T08:26:23.222Z,81.13
2022-12-03T08:28:51.081Z,82.08
2022-12-03T08:31:27.947Z,81.61
2022-12-03T08:34:07.876Z,80.98
2022-12-03T08:36:37.589Z,80.89
2022-12-03T08:39:22.081Z,80.74
2022-12-03T08:42:13.998Z,81.53
2022-12-03T08:44:42.141Z,80.85
2022-12-03T08:47:17.465Z,80.22
2022-12-03T08:49:52.340Z,80.63
2022-12-03T08:52:22.971Z,80.59
2022-12-03T08:54:53.512Z,80.93
2022-12-03T08:57:28.509Z,81.57
2022-12-03T09:00:01.083Z,81.90
2022-12-03T09:02:33.366Z,81.43
2022-12-03T09:05:14.339Z,81.57
2022-12-03T09:07:43.548Z,80.72
2022-12-03T09:10:11.731Z,80.63
2022-12-03T09:12:39.703Z,80.76
2022-12-03T09:15:08.646Z,80.89
2022-12-03T09:17:36.441Z,81.43
2022-12-03T09:20:04.712Z,80.39
2022-12-03T09:22:32.540Z,80.73
2022-12-03T09:25:01.698Z,81.80
2022-12-03T09:27:29.379Z,81.10
2022-12-03T09:29:57.152Z,81.42
2022-12-03T09:32:24.990Z,81.32
2022-12-03T09:34:53.273Z,81.44
2022-12-03T09:37:22.143Z,80.45
2022-12-03T09:39:49.950Z,80.74
2022-12-03T09:42:19.309Z,80.75
2022-12-03T09:44:46.839Z,80.32
2022-12-03T09:47:15.040Z,80.03
2022-12-03T09:49:43.473Z,80.05
2022-12-03T09:52:17.849Z,80.71
2022-12-03T09:54:47.686Z,80.23
2022-12-03T09:57:17.631Z,80.32
2022-12-03T09:59:47.564Z,80.45
2022-12-03T10:02:22.344Z,80.77
2022-12-03T10:04:50.514Z,79.69
2022-12-03T10:07:18.431Z,80.73
2022-12-03T10:09:46.602Z,80.53
2022-12-03T10:12:16.279Z,80.35
2022-12-03T10:14:44.337Z,80.61
2022-12-03T10:17:13.761Z,80.57
2022-12-03T10:19:42.749Z,80.53
2022-12-03T10:22:10.520Z,80.96
2022-12-03T10:24:39.402Z,81.22
2022-12-03T10:27:22.951Z,80.47
2022-12-03T10:29:59.092Z,81.22
2022-12-03T10:32:41.393Z,80.35
2022-12-03T10:35:12.493Z,80.71
2022-12-03T10:37:58.438Z,80.68
2022-12-03T10:40:31.146Z,80.56
2022-12-03T10:43:17.557Z,80.41
2022-12-03T10:45:46.649Z,80.69
2022-12-03T10:48:17.848Z,81.02
2022-12-03T10:50:51.739Z,81.01
2022-12-03T10:53:20.872Z,80.02
2022-12-03T10:55:51.176Z,80.53
2022-12-03T10:58:23.023Z,81.09
2022-12-03T11:00:54.037Z,80.57
2022-12-03T11:03:25.048Z,80.97
2022-12-03T11:05:53.604Z,80.76
2022-12-03T11:08:24.123Z,81.32
2022-12-03T11:11:00.575Z,80.78
2022-12-03T11:13:49.973Z,80.45
2022-12-03T11:16:32.443Z,80.16
2022-12-03T11:19:03.331Z,79.66
2022-12-03T11:21:31.507Z,79.46
2022-12-03T11:24:21.748Z,80.29
2022-12-03T11:27:26.120Z,79.99
2022-12-03T11:29:56.300Z,79.48
2022-12-03T11:33:07.372Z,79.39
2022-12-03T11:36:15.446Z,79.71
2022-12-03T11:39:05.644Z,80.69
2022-12-03T11:41:35.876Z,80.22
2022-12-03T11:44:36.819Z,80.71
2022-12-03T11:47:15.380Z,79.51
2022-12-03T11:49:48.786Z,80.21
2022-12-03T11:52:30.060Z,80.51
2022-12-03T11:55:02.801Z,79.46
2022-12-03T11:57:35.745Z,79.17
2022-12-03T12:00:20.714Z,79.11
2022-12-03T12:02:49.128Z,79.93
2022-12-03T12:05:23.423Z,79.06
2022-12-03T12:07:53.664Z,79.61
2022-12-03T12:10:46.764Z,79.66
2022-12-03T12:13:57.181Z,80.28
2022-12-03T12:16:45.983Z,81.00
2022-12-03T12:19:38.116Z,80.61
2022-12-03T12:22:18.025Z,79.90
2022-12-03T12:24:51.455Z,79.94
2022-12-03T12:27:21.718Z,80.84
2022-12-03T12:29:54.918Z,80.27
2022-12-03T12:32:26.196Z,78.74
2022-12-03T12:34:58.023Z,79.44
2022-12-03T12:37:35.755Z,80.07
2022-12-03T12:40:12.904Z,80.27
2022-12-03T12:42:49.466Z,79.54
2022-12-03T12:45:20.906Z,79.75
2022-12-03T12:47:54.647Z,79.88
2022-12-03T12:50:22.549Z,79.58
2022-12-03T12:52:53.864Z,79.83
2022-12-03T12:55:24.372Z,79.91
2022-12-03T12:57:52.348Z,79.38
2022-12-03T13:00:22.484Z,79.98
2022-12-03T13:02:53.290Z,79.72
2022-12-03T13:05:21.424Z,79.06
2022-12-03T13:07:49.332Z,79.30
2022-12-03T13:10:28.454Z,79.52
2022-12-03T13:12:56.340Z,79.87
2022-12-03T13:15:39.922Z,80.31
2022-12-03T13:18:24.708Z,80.81
2022-12-03T13:20:52.538Z,80.54
2022-12-03T13:23:31.425Z,79.75
2022-12-03T13:26:22.301Z,79.87
2022-12-03T13:28:53.079Z,80.67
2022-12-03T13:31:27.052Z,80.01
2022-12-03T13:33:56.621Z,80.60
2022-12-03T13:36:39.167Z,79.79
2022-12-03T13:39:14.254Z,80.65
2022-12-03T13:42:01.066Z,81.50
2022-12-03T13:44:31.255Z,80.98
2022-12-03T13:47:01.845Z,81.15
2022-12-03T13:49:30.984Z,81.24
2022-12-03T13:51:59.152Z,82.15
2022-12-03T13:54:31.203Z,81.84
2022-12-03T13:57:02.617Z,81.98
2022-12-03T13:59:30.296Z,82.45
2022-12-03T14:01:58.421Z,82.66
2022-12-03T14:04:27.643Z,82.34
2022-12-03T14:06:55.443Z,83.10
2022-12-03T14:09:23.200Z,83.01
2022-12-03T14:12:08.728Z,82.70
2022-12-03T14:14:38.049Z,83.02
2022-12-03T14:17:06.510Z,82.77
2022-12-03T14:19:34.363Z,82.44
2022-12-03T14:22:02.442Z,82.48
2022-12-03T14:24:30.241Z,82.33
2022-12-03T14:26:57.956Z,82.56
2022-12-03T14:29:25.964Z,82.01
2022-12-03T14:31:55.122Z,82.19
2022-12-03T14:34:23.163Z,82.48
2022-12-03T14:36:50.910Z,82.14
2022-12-03T14:39:18.706Z,82.15
2022-12-03T14:42:03.907Z,81.83
2022-12-03T14:44:31.660Z,81.88
2022-12-03T14:47:00.793Z,82.17
2022-12-03T14:49:28.748Z,82.47
2022-12-03T14:51:56.650Z,82.70
2022-12-03T14:54:24.689Z,82.97
2022-12-03T14:56:52.617Z,83.27
2022-12-03T14:59:24.552Z,82.88
2022-12-03T15:01:55.756Z,83.35
2022-12-03T15:04:25.069Z,83.24
2022-12-03T15:06:52.887Z,83.23
2022-12-03T15:09:21.113Z,82.66
2022-12-03T15:11:48.817Z,83.05
2022-12-03T15:14:16.638Z,82.95
2022-12-03T15:16:44.437Z,83.01
2022-12-03T15:19:12.185Z,83.69
2022-12-03T15:21:41.445Z,83.12
2022-12-03T15:24:10.377Z,83.55
2022-12-03T15:26:38.418Z,84.31
2022-12-03T15:29:06.257Z,84.26
2022-12-03T15:31:34.224Z,83.13
2022-12-03T15:34:02.052Z,83.82
2022-12-03T15:36:29.793Z,84.08
2022-12-03T15:38:58.982Z,84.54
2022-12-03T15:41:29.184Z,83.87
2022-12-03T15:43:58.413Z,84.41
2022-12-03T15:46:27.926Z,84.54
2022-12-03T15:48:56.404Z,84.44
2022-12-03T15:51:24.228Z,84.85
2022-12-03T15:53:52.048Z,84.55
2022-12-03T15:56:21.121Z,85.18
2022-12-03T15:58:48.883Z,84.57
2022-12-03T16:01:18.311Z,84.28
2022-12-03T16:03:46.359Z,83.95
2022-12-03T16:06:14.707Z,83.68
2022-12-03T16:08:42.571Z,83.91
2022-12-03T16:11:10.233Z,84.49
2022-12-03T16:13:39.473Z,84.12
2022-12-03T16:16:07.568Z,84.32
2022-12-03T16:18:35.405Z,84.17
2022-12-03T16:21:03.134Z,84.09
2022-12-03T16:23:30.877Z,84.14
2022-12-03T16:25:58.623Z,83.77
2022-12-03T16:28:26.505Z,84.03
2022-12-03T16:30:55.916Z,84.42
2022-12-03T16:33:27.474Z,84.63
2022-12-03T16:35:55.723Z,84.63
2022-12-03T16:38:23.508Z,84.06
2022-12-03T16:40:51.204Z,83.91
2022-12-03T16:43:19.532Z,83.44
2022-12-03T16:46:09.907Z,83.77
2022-12-03T16:48:39.078Z,83.73
2022-12-03T16:51:07.209Z,83.42
2022-12-03T16:53:35.000Z,83.87
2022-12-03T16:56:03.090Z,83.25
2022-12-03T16:58:30.857Z,83.78
2022-12-03T17:00:58.727Z,84.06
2022-12-03T17:03:32.069Z,84.19
2022-12-03T17:06:03.725Z,83.91
2022-12-03T17:08:31.768Z,83.67
2022-12-03T17:10:59.633Z,83.49
2022-12-03T17:13:27.505Z,83.22
2022-12-03T17:15:55.642Z,83.16
2022-12-03T17:18:23.963Z,83.40
2022-12-03T17:20:51.862Z,82.97
2022-12-03T17:23:21.242Z,82.83
2022-12-03T17:25:48.915Z,83.62
2022-12-03T17:28:16.716Z,82.79
2022-12-03T17:30:44.658Z,83.43
2022-12-03T17:33:12.461Z,83.19
2022-12-03T17:35:40.240Z,82.69
2022-12-03T17:38:09.036Z,83.44
2022-12-03T17:40:38.398Z,82.70
2022-12-03T17:43:06.090Z,83.58
2022-12-03T17:45:33.898Z,83.81
2022-12-03T17:48:01.737Z,82.82
2022-12-03T17:50:29.520Z,83.01
2022-12-03T17:53:01.478Z,82.67
2022-12-03T17:55:42.834Z,82.76
2022-12-03T17:58:19.664Z,83.23
2022-12-03T18:00:51.306Z,83.68
2022-12-03T18:03:24.322Z,83.03
2022-12-03T18:05:56.851Z,82.76
2022-12-03T18:08:28.401Z,83.30
2022-12-03T18:11:00.572Z,83.33
2022-12-03T18:13:36.643Z,82.90
2022-12-03T18:16:08.736Z,82.97
2022-12-03T18:18:40.573Z,83.43
2022-12-03T18:21:16.069Z,83.56
2022-12-03T18:23:47.123Z,83.40
2022-12-03T18:26:21.948Z,83.56
2022-12-03T18:28:55.687Z,83.80
2022-12-03T18:31:27.955Z,83.01
2022-12-03T18:34:03.085Z,83.50
2022-12-03T18:36:40.235Z,82.95
2022-12-03T18:39:20.703Z,83.23
2022-12-03T18:41:52.635Z,83.43
2022-12-03T18:44:36.277Z,83.36
2022-12-03T18:47:14.998Z,83.13
2022-12-03T18:49:47.154Z,82.64
2022-12-03T18:52:22.995Z,83.65
2022-12-03T18:54:55.296Z,83.47
2022-12-03T18:57:27.701Z,82.93
2022-12-03T19:00:02.017Z,82.94
2022-12-03T19:03:01.085Z,82.92
2022-12-03T19:05:23.602Z,83.47
2022-12-03T19:07:56.904Z,83.23
2022-12-03T19:10:28.953Z,83.35
2022-12-03T19:13:00.988Z,83.17
2022-12-03T19:15:30.195Z,83.30
2022-12-03T19:18:00.845Z,82.93
2022-12-03T19:20:34.150Z,83.72
2022-12-03T19:23:06.841Z,84.03
2022-12-03T19:25:35.275Z,83.74
2022-12-03T19:28:03.069Z,83.38
2022-12-03T19:30:32.345Z,83.99
2022-12-03T19:33:00.087Z,83.28
2022-12-03T19:35:27.867Z,82.98
2022-12-03T19:37:55.797Z,83.23
2022-12-03T19:40:23.509Z,83.10
2022-12-03T19:42:51.397Z,83.18
2022-12-03T19:45:19.255Z,83.59
2022-12-03T19:47:48.920Z,83.51
2022-12-03T19:50:22.654Z,83.41
2022-12-03T19:52:51.200Z,83.74
2022-12-03T19:55:19.558Z,83.46
2022-12-03T19:57:47.339Z,83.15
2022-12-03T20:00:16.425Z,83.22
2022-12-03T20:02:44.218Z,83.13
2022-12-03T20:05:13.325Z,82.84
2022-12-03T20:07:41.146Z,83.03
2022-12-03T20:10:09.343Z,83.16
2022-12-03T20:12:37.080Z,83.29
2022-12-03T20:15:05.652Z,83.80
2022-12-03T20:17:33.494Z,83.43
2022-12-03T20:20:01.226Z,83.10
2022-12-03T20:22:30.346Z,83.12
2022-12-03T20:24:58.105Z,83.46
2022-12-03T20:27:25.891Z,83.78
2022-12-03T20:29:53.913Z,83.62
2022-12-03T20:32:21.980Z,83.88
2022-12-03T20:34:50.106Z,83.59
2022-12-03T20:37:18.383Z,83.49
2022-12-03T20:39:50.576Z,83.58
2022-12-03T20:42:18.373Z,83.72
2022-12-03T20:44:46.368Z,83.49
2022-12-03T20:47:14.149Z,84.18
2022-12-03T20:49:42.254Z,83.91
2022-12-03T20:52:10.021Z,83.76
2022-12-03T20:54:38.020Z,84.17
2022-12-03T20:57:07.151Z,83.76
2022-12-03T20:59:34.857Z,83.73
2022-12-03T21:02:02.815Z,83.91
2022-12-03T21:04:30.659Z,84.29
2022-12-03T21:06:58.425Z,83.61
2022-12-03T21:09:26.281Z,83.85
2022-12-03T21:11:54.017Z,84.31
2022-12-03T21:14:23.178Z,83.40
2022-12-03T21:17:07.946Z,83.63
2022-12-03T21:19:36.420Z,83.46
2022-12-03T21:22:04.195Z,84.25
2022-12-03T21:24:31.988Z,83.91
2022-12-03T21:26:59.769Z,83.63
2022-12-03T21:29:28.836Z,84.06
2022-12-03T21:31:56.605Z,83.95
2022-12-03T21:34:24.421Z,83.68
2022-12-03T21:36:52.542Z,83.75
2022-12-03T21:39:20.412Z,84.07
2022-12-03T21:42:36.106Z,83.99
2022-12-03T21:44:38.597Z,83.27
2022-12-03T21:47:11.972Z,83.59
2022-12-03T21:49:41.832Z,83.88
2022-12-03T21:52:09.922Z,83.82
2022-12-03T21:54:37.813Z,83.82
2022-12-03T21:57:05.632Z,83.85
2022-12-03T21:59:33.424Z,83.81
2022-12-03T22:02:02.608Z,83.95
2022-12-03T22:04:30.442Z,84.62
2022-12-03T22:06:58.240Z,83.98
2022-12-03T22:09:26.842Z,84.28
2022-12-03T22:11:56.897Z,83.94
2022-12-03T22:14:24.812Z,84.03
2022-12-03T22:16:52.531Z,83.86
2022-12-03T22:19:23.234Z,83.93
2022-12-03T22:21:51.035Z,84.16
2022-12-03T22:24:19.540Z,83.92
2022-12-03T22:26:47.700Z,83.72
2022-12-03T22:29:15.619Z,83.94
2022-12-03T22:31:43.457Z,83.68
2022-12-03T22:34:11.222Z,83.58
2022-12-03T22:36:40.326Z,83.79
2022-12-03T22:39:08.058Z,84.34
2022-12-03T22:41:35.876Z,84.58
2022-12-03T22:44:03.730Z,84.39
2022-12-03T22:46:31.790Z,83.88
2022-12-03T22:49:06.380Z,84.35
2022-12-03T22:51:34.680Z,84.09
2022-12-03T22:54:03.967Z,84.57
2022-12-03T22:56:32.672Z,83.93
2022-12-03T22:59:00.494Z,84.03
2022-12-03T23:01:30.589Z,84.29
2022-12-03T23:03:58.579Z,84.08
2022-12-03T23:06:27.021Z,83.75
2022-12-03T23:08:55.621Z,83.89
2022-12-03T23:11:25.052Z,84.08
2022-12-03T23:13:52.550Z,84.33
2022-12-03T23:16:22.825Z,84.22
2022-12-03T23:18:50.757Z,84.02
2022-12-03T23:21:25.391Z,84.44
2022-12-03T23:23:56.598Z,84.34
2022-12-03T23:26:25.905Z,84.01
2022-12-03T23:28:53.878Z,84.12
2022-12-03T23:31:24.757Z,84.05
2022-12-03T23:33:53.365Z,84.07
2022-12-03T23:36:21.711Z,84.24
2022-12-03T23:38:49.644Z,83.80
2022-12-03T23:41:19.381Z,84.02
2022-12-03T23:43:48.855Z,84.05
2022-12-03T23:46:17.714Z,83.82
2022-12-03T23:48:46.058Z,83.87
2022-12-03T23:51:17.227Z,84.28
2022-12-03T23:53:45.255Z,84.17
2022-12-03T23:56:14.989Z,84.27
2022-12-03T23:58:43.049Z,84.64
